createdAt,value
2019-04-20T00:00:39.948Z,101591.45
2019-04-20T00:05:33.009Z,101593.16
2019-04-20T00:10:46.632Z,101595.08
2019-04-20T00:15:36.948Z,101590.54
2019-04-20T00:20:40.765Z,101590.73
2019-04-20T00:25:54.918Z,101590.84
2019-04-20T00:31:05.860Z,101581.83
2019-04-20T00:35:50.910Z,101584.09
2019-04-20T00:41:01.972Z,101583.25
2019-04-20T00:46:06.662Z,101582.06
2019-04-20T00:51:21.252Z,101576.09
2019-04-20T00:56:03.526Z,101581.03
2019-04-20T01:01:26.375Z,101578.03
2019-04-20T01:06:31.561Z,101577.60
2019-04-20T01:11:26.969Z,101581.44
2019-04-20T01:16:29.334Z,101587.49
2019-04-20T01:21:26.414Z,101586.89
2019-04-20T01:26:24.922Z,101590.84
2019-04-20T01:31:35.406Z,101602.30
2019-04-20T01:36:46.098Z,101597.20
2019-04-20T01:41:32.914Z,101597.31
2019-04-20T01:46:38.387Z,101604.17
2019-04-20T01:51:46.951Z,101598.08
2019-04-20T01:56:47.606Z,101591.38
2019-04-20T02:01:55.180Z,101605.03
2019-04-20T02:06:54.828Z,101604.42
2019-04-20T02:11:53.828Z,101602.64
2019-04-20T02:17:05.409Z,101610.02
2019-04-20T02:22:12.270Z,101611.00
2019-04-20T02:26:59.855Z,101612.75
2019-04-20T02:32:30.450Z,101616.14
2019-04-20T02:42:44.812Z,101619.19
2019-04-20T02:52:49.309Z,101621.13
2019-04-20T02:58:01.924Z,101609.31
2019-04-20T03:02:31.315Z,101613.03
2019-04-20T03:07:34.482Z,101610.23
2019-04-20T03:12:44.921Z,101612.44
2019-04-20T03:17:46.411Z,101609.59
2019-04-20T03:23:11.657Z,101604.55
2019-04-20T03:27:46.137Z,101610.29
2019-04-20T03:38:00.916Z,101603.95
2019-04-20T03:42:39.999Z,101607.19
2019-04-20T03:47:52.936Z,101607.19
2019-04-20T03:53:08.563Z,101613.59
2019-04-20T03:58:10.213Z,101615.05
2019-04-20T04:03:19.721Z,101618.98
2019-04-20T04:08:09.481Z,101610.14
2019-04-20T04:13:01.069Z,101617.70
2019-04-20T04:18:07.370Z,101612.72
2019-04-20T04:23:27.037Z,101617.85
2019-04-20T04:28:27.588Z,101630.77
2019-04-20T04:38:37.758Z,101632.89
2019-04-20T04:43:35.850Z,101629.25
2019-04-20T04:48:23.589Z,101642.76
2019-04-20T04:53:30.208Z,101653.08
2019-04-20T04:58:23.568Z,101653.68
2019-04-20T05:03:41.361Z,101656.02
2019-04-20T05:08:34.439Z,101657.42
2019-04-20T05:13:36.844Z,101666.78
2019-04-20T05:18:59.257Z,101674.16
2019-04-20T05:23:45.770Z,101676.70
2019-04-20T05:28:48.254Z,101678.80
2019-04-20T05:34:11.482Z,101670.67
2019-04-20T05:39:10.031Z,101676.78
2019-04-20T05:44:07.321Z,101681.29
2019-04-20T05:49:20.600Z,101688.13
2019-04-20T05:54:15.539Z,101689.16
2019-04-20T05:59:16.194Z,101693.41
2019-04-20T06:04:29.985Z,101696.84
2019-04-20T06:14:14.701Z,101696.52
2019-04-20T06:19:41.767Z,101696.89
2019-04-20T06:24:42.183Z,101699.95
2019-04-20T06:29:26.557Z,101708.75
2019-04-20T06:39:40.309Z,101717.22
2019-04-20T06:49:38.413Z,101716.33
2019-04-20T06:55:00.251Z,101719.54
2019-04-20T07:00:08.787Z,101718.58
2019-04-20T07:05:12.771Z,101720.30
2019-04-20T07:10:34.499Z,101723.02
2019-04-20T07:15:08.511Z,101725.28
2019-04-20T07:20:10.512Z,101722.52
2019-04-20T07:25:19.086Z,101719.49
2019-04-20T07:30:16.462Z,101719.91
2019-04-20T07:35:27.550Z,101723.10
2019-04-20T07:40:24.519Z,101721.77
2019-04-20T07:45:29.533Z,101721.34
2019-04-20T07:50:26.677Z,101721.37
2019-04-20T07:55:40.859Z,101716.98
2019-04-20T08:00:41.902Z,101718.20
2019-04-20T08:05:41.962Z,101713.73
2019-04-20T08:10:38.364Z,101711.19
2019-04-20T08:15:58.781Z,101719.55
2019-04-20T08:20:59.620Z,101717.16
2019-04-20T08:25:48.256Z,101711.02
2019-04-20T08:30:57.174Z,101717.30
2019-04-20T08:36:04.351Z,101708.61
2019-04-20T08:41:03.231Z,101704.56
2019-04-20T08:46:05.324Z,101695.66
2019-04-20T08:51:10.215Z,101700.71
2019-04-20T08:56:05.833Z,101700.73
2019-04-20T09:00:58.783Z,101692.64
2019-04-20T09:06:04.176Z,101683.36
2019-04-20T09:11:16.811Z,101689.38
2019-04-20T09:16:02.135Z,101682.13
2019-04-20T09:21:15.164Z,101677.27
2019-04-20T09:26:24.688Z,101670.06
2019-04-20T09:31:20.207Z,101671.98
2019-04-20T09:36:33.601Z,101661.55
2019-04-20T09:41:40.868Z,101656.52
2019-04-20T09:46:22.350Z,101653.06
2019-04-20T09:51:43.654Z,101646.85
2019-04-20T09:56:41.956Z,101641.41
2019-04-20T10:01:39.559Z,101642.84
2019-04-20T10:06:35.621Z,101630.94
2019-04-20T10:11:35.162Z,101633.28
2019-04-20T10:16:37.901Z,101614.89
2019-04-20T10:21:39.488Z,101620.75
2019-04-20T10:26:42.776Z,101614.58
2019-04-20T10:31:51.440Z,101612.67
2019-04-20T10:36:47.911Z,101609.55
2019-04-20T10:41:54.471Z,101595.80
2019-04-20T10:46:53.315Z,101604.81
2019-04-20T10:51:55.717Z,101594.25
2019-04-20T10:56:57.362Z,101598.88
2019-04-20T11:01:59.522Z,101583.09
2019-04-20T11:07:02.846Z,101593.34
2019-04-20T11:12:04.451Z,101578.37
2019-04-20T11:17:06.940Z,101576.17
2019-04-20T11:22:10.392Z,101574.70
2019-04-20T11:27:12.121Z,101568.23
2019-04-20T11:32:14.341Z,101562.13
2019-04-20T11:37:17.274Z,101551.84
2019-04-20T11:42:19.616Z,101539.72
2019-04-20T11:47:21.910Z,101531.28
2019-04-20T11:52:25.378Z,101534.83
2019-04-20T11:57:27.192Z,101532.72
2019-04-20T12:02:37.154Z,101528.36
2019-04-20T12:07:38.165Z,101532.09
2019-04-20T12:12:44.281Z,101523.81
2019-04-20T12:17:43.943Z,101523.69
2019-04-20T12:22:46.266Z,101521.47
2019-04-20T12:27:52.562Z,101519.02
2019-04-20T12:32:55.484Z,101499.55
2019-04-20T12:37:52.703Z,101487.02
2019-04-20T12:42:55.173Z,101487.84
2019-04-20T12:47:57.674Z,101477.20
2019-04-20T12:53:00.140Z,101473.77
2019-04-20T12:58:02.868Z,101480.19
2019-04-20T13:03:05.386Z,101469.53
2019-04-20T13:08:09.235Z,101467.28
2019-04-20T13:13:19.019Z,101467.09
2019-04-20T13:18:30.141Z,101450.64
2019-04-20T13:23:33.102Z,101443.05
2019-04-20T13:28:35.110Z,101443.42
2019-04-20T13:33:38.846Z,101436.22
2019-04-20T13:38:40.385Z,101432.39
2019-04-20T13:43:43.819Z,101428.16
2019-04-20T13:48:44.979Z,101429.21
2019-04-20T13:53:47.711Z,101421.34
2019-04-20T13:58:53.955Z,101419.92
2019-04-20T14:04:10.783Z,101417.83
2019-04-20T14:09:13.039Z,101406.09
2019-04-20T14:14:15.511Z,101401.30
2019-04-20T14:19:18.947Z,101396.57
2019-04-20T14:24:21.295Z,101391.98
2019-04-20T14:29:23.131Z,101389.84
2019-04-20T14:34:26.797Z,101374.10
2019-04-20T14:39:28.050Z,101369.81
2019-04-20T14:44:30.324Z,101373.48
2019-04-20T14:49:32.782Z,101366.77
2019-04-20T14:54:35.246Z,101357.97
2019-04-20T14:59:37.855Z,101360.27
2019-04-20T15:04:41.255Z,101352.25
2019-04-20T15:09:42.956Z,101350.05
2019-04-20T15:14:45.163Z,101342.56
2019-04-20T15:19:57.230Z,101340.26
2019-04-20T15:24:59.993Z,101336.14
2019-04-20T15:30:02.673Z,101324.41
2019-04-20T15:35:04.842Z,101319.89
2019-04-20T15:40:06.689Z,101317.31
2019-04-20T15:45:09.444Z,101307.55
2019-04-20T15:50:11.864Z,101310.36
2019-04-20T15:55:22.602Z,101307.13
2019-04-20T16:00:16.599Z,101299.34
2019-04-20T16:05:26.123Z,101302.41
2019-04-20T16:10:28.629Z,101302.32
2019-04-20T16:15:30.081Z,101289.48
2019-04-20T16:20:45.104Z,101288.64
2019-04-20T16:25:41.451Z,101291.50
2019-04-20T16:30:43.605Z,101283.50
2019-04-20T16:35:46.810Z,101276.16
2019-04-20T16:40:48.641Z,101280.57
2019-04-20T16:45:51.116Z,101271.42
2019-04-20T16:50:53.560Z,101261.39
2019-04-20T16:55:56.824Z,101256.02
2019-04-20T17:00:59.315Z,101263.51
2019-04-20T17:06:02.308Z,101258.25
2019-04-20T17:11:03.598Z,101248.85
2019-04-20T17:16:06.089Z,101253.16
2019-04-20T17:21:16.627Z,101251.92
2019-04-20T17:26:11.906Z,101254.42
2019-04-20T17:31:13.632Z,101256.78
2019-04-20T17:36:21.435Z,101263.11
2019-04-20T17:41:41.419Z,101261.05
2019-04-20T17:46:35.818Z,101255.00
2019-04-20T17:51:47.953Z,101256.05
2019-04-20T17:56:31.951Z,101252.16
2019-04-20T18:02:07.778Z,101254.17
2019-04-20T18:07:09.739Z,101261.36
2019-04-20T18:12:03.317Z,101255.80
2019-04-20T18:17:25.740Z,101257.08
2019-04-20T18:22:15.857Z,101255.91
2019-04-20T18:27:38.978Z,101258.04
2019-04-20T18:32:29.364Z,101259.44
2019-04-20T18:37:32.377Z,101259.16
2019-04-20T18:42:38.855Z,101265.70
2019-04-20T18:47:56.265Z,101262.38
2019-04-20T18:52:38.300Z,101266.48
2019-04-20T18:57:41.571Z,101275.72
2019-04-20T19:02:48.892Z,101273.61
2019-04-20T19:07:57.152Z,101281.31
2019-04-20T19:13:06.238Z,101288.61
2019-04-20T19:18:38.085Z,101283.01
2019-04-20T19:23:27.097Z,101286.30
2019-04-20T19:28:36.818Z,101285.02
2019-04-20T19:33:54.647Z,101282.86
2019-04-20T19:38:46.524Z,101285.84
2019-04-20T19:43:50.002Z,101288.09
2019-04-20T19:48:49.164Z,101289.27
2019-04-20T19:53:59.999Z,101287.12
2019-04-20T19:58:58.986Z,101282.56
2019-04-20T20:03:48.337Z,101286.50
2019-04-20T20:08:55.785Z,101282.29
2019-04-20T20:13:53.857Z,101288.00
2019-04-20T20:19:05.769Z,101288.50
2019-04-20T20:23:56.460Z,101283.55
2019-04-20T20:29:10.956Z,101282.91
2019-04-20T20:34:10.952Z,101285.48
2019-04-20T20:39:15.932Z,101282.35
2019-04-20T20:44:19.610Z,101286.23
2019-04-20T20:49:29.961Z,101292.25
2019-04-20T20:54:25.840Z,101294.14
2019-04-20T20:59:26.805Z,101284.19
2019-04-20T21:04:15.778Z,101290.59
2019-04-20T21:09:18.594Z,101285.27
2019-04-20T21:14:26.075Z,101294.69
2019-04-20T21:19:42.015Z,101293.49
2019-04-20T21:24:27.276Z,101282.47
2019-04-20T21:29:35.547Z,101283.18
2019-04-20T21:34:31.207Z,101277.56
2019-04-20T21:39:42.475Z,101275.44
2019-04-20T21:44:40.748Z,101279.41
2019-04-20T21:49:49.671Z,101274.80
2019-04-20T21:54:40.672Z,101280.73
2019-04-20T21:59:47.024Z,101266.75
2019-04-20T22:04:45.627Z,101268.44
2019-04-20T22:09:50.347Z,101257.09
2019-04-20T22:14:59.032Z,101258.84
2019-04-20T22:20:07.012Z,101258.01
2019-04-20T22:25:08.018Z,101251.59
2019-04-20T22:29:57.978Z,101250.39
2019-04-20T22:35:06.569Z,101264.48
2019-04-20T22:40:03.303Z,101264.28
2019-04-20T22:45:10.052Z,101257.47
2019-04-20T22:50:28.957Z,101256.11
2019-04-20T22:55:36.611Z,101259.03
2019-04-20T23:00:16.765Z,101245.34
2019-04-20T23:05:15.344Z,101241.11
2019-04-20T23:10:25.282Z,101238.57
2019-04-20T23:15:20.551Z,101228.71
2019-04-20T23:20:29.978Z,101226.63
2019-04-20T23:25:25.198Z,101229.87
2019-04-20T23:30:33.459Z,101223.72
2019-04-20T23:35:31.623Z,101214.86
2019-04-20T23:40:33.988Z,101208.38
2019-04-20T23:45:42.774Z,101210.73
2019-04-20T23:50:54.420Z,101214.32
2019-04-20T23:55:43.695Z,101213.33
